Time;durP1;ratioP1;P1;durP2;ratioP2;P2;SDS_P1;SDS_P2;PMS_P1;PMS_P2;Temp;Humidity;BMP_temperature;BMP_pressure;BME280_temperature;BME280_humidity;BME280_pressure;Samples;Min_cycle;Max_cycle;Signal;HPM_P1;HPM_P2
2024/01/26 00:01:07;;;;;;;5.85;5.65;;;;;;;-145.48;100.00;64539.38;6266639;28;20037;-91
2024/01/26 00:04:12;;;;;;;5.90;5.68;;;;;;;-145.48;100.00;64539.38;6253465;28;20496;-91
2024/01/26 00:07:14;;;;;;;6.57;6.28;;;;;;;-145.48;100.00;64539.38;6254305;28;21422;-92
2024/01/26 00:10:16;;;;;;;5.82;5.63;;;;;;;-145.48;100.00;64539.38;6261887;28;20499;-92
2024/01/26 00:13:18;;;;;;;6.50;6.20;;;;;;;-145.48;100.00;64539.38;6263862;28;20037;-91
2024/01/26 00:16:20;;;;;;;6.50;6.20;;;;;;;-145.48;100.00;64539.38;6258159;28;20046;-91
2024/01/26 00:19:22;;;;;;;5.88;5.65;;;;;;;-145.48;100.00;64539.38;6256101;28;20045;-92
2024/01/26 00:22:25;;;;;;;6.90;6.50;;;;;;;-145.48;100.00;64539.38;6257061;28;20550;-92
2024/01/26 00:25:27;;;;;;;7.10;6.75;;;;;;;-145.48;100.00;64539.38;6252016;28;20533;-92
2024/01/26 00:28:29;;;;;;;6.90;6.60;;;;;;;-145.48;100.00;64539.38;6268427;28;20049;-91
2024/01/26 00:31:31;;;;;;;6.93;6.53;;;;;;;-145.48;100.00;64539.38;6254260;28;20052;-92
2024/01/26 00:34:33;;;;;;;7.82;7.43;;;;;;;-145.48;100.00;64539.38;6255513;28;20086;-92
2024/01/26 00:37:35;;;;;;;7.40;6.78;;;;;;;-145.48;100.00;64539.38;6254037;28;20037;-92
2024/01/26 00:40:37;;;;;;;6.15;5.95;;;;;;;-145.48;100.00;64539.38;6256961;28;20037;-92
2024/01/26 00:43:39;;;;;;;6.40;6.20;;;;;;;-145.48;100.00;64539.38;6259275;28;20130;-92
2024/01/26 00:46:40;;;;;;;7.05;6.57;;;;;;;-145.48;100.00;64539.38;6244482;28;20053;-92
2024/01/26 00:49:42;;;;;;;6.43;6.22;;;;;;;-145.48;100.00;64539.38;6250832;28;20576;-91
2024/01/26 00:52:53;;;;;;;6.82;6.30;;;;;;;-145.48;100.00;64539.38;6253181;28;20044;-92
2024/01/26 00:55:55;;;;;;;6.75;6.30;;;;;;;-145.48;100.00;64539.38;6244941;28;20394;-92
2024/01/26 00:58:57;;;;;;;6.40;6.13;;;;;;;-145.48;100.00;64539.38;6253934;28;20045;-92
2024/01/26 01:01:59;;;;;;;6.60;6.30;;;;;;;-145.48;100.00;64539.38;6260415;28;20049;-92
2024/01/26 01:05:01;;;;;;;6.75;6.45;;;;;;;-145.48;100.00;64539.38;6262005;28;20091;-92
2024/01/26 01:08:04;;;;;;;6.03;5.82;;;;;;;-145.48;100.00;64539.38;6276877;28;20430;-91
2024/01/26 01:11:06;;;;;;;6.10;5.80;;;;;;;-145.48;100.00;64539.38;6256369;28;20402;-92
2024/01/26 01:14:08;;;;;;;6.40;6.20;;;;;;;-145.48;100.00;64539.38;6263144;28;20045;-92
2024/01/26 01:17:14;;;;;;;11.35;7.18;;;;;;;-145.48;100.00;64539.38;6259888;28;20041;-92
2024/01/26 01:20:16;;;;;;;8.35;7.70;;;;;;;-145.48;100.00;64539.38;6261305;28;20052;-92
2024/01/26 01:23:19;;;;;;;9.50;8.75;;;;;;;-145.48;100.00;64539.38;6260346;28;20182;-92
2024/01/26 01:26:21;;;;;;;6.22;6.03;;;;;;;-145.48;100.00;64539.38;6259288;28;20550;-91
2024/01/26 01:29:23;;;;;;;7.03;6.72;;;;;;;-145.48;100.00;64539.38;6268902;28;20041;-92
2024/01/26 01:32:25;;;;;;;6.47;6.18;;;;;;;-145.48;100.00;64539.38;6271454;28;20053;-91
2024/01/26 01:35:27;;;;;;;8.93;6.15;;;;;;;-145.48;100.00;64539.38;6263742;28;20513;-92
2024/01/26 01:38:29;;;;;;;6.35;6.15;;;;;;;-145.48;100.00;64539.38;6261175;28;20384;-92
2024/01/26 01:41:31;;;;;;;7.75;7.28;;;;;;;-145.48;100.00;64539.38;6261009;28;20048;-92
2024/01/26 01:44:33;;;;;;;6.72;6.43;;;;;;;-145.48;100.00;64539.38;6255014;28;20073;-92
2024/01/26 01:47:35;;;;;;;7.18;6.88;;;;;;;-145.48;100.00;64539.38;6251920;28;20147;-92
2024/01/26 01:50:38;;;;;;;6.53;6.28;;;;;;;-145.48;100.00;64539.38;6255095;28;20533;-91
2024/01/26 01:53:40;;;;;;;7.07;6.72;;;;;;;-145.48;100.00;64539.38;6255659;28;20487;-90
2024/01/26 01:56:43;;;;;;;6.28;5.97;;;;;;;-145.48;100.00;64539.38;6259469;28;20064;-90
2024/01/26 01:59:45;;;;;;;7.13;6.82;;;;;;;-145.48;100.00;64539.38;6265512;28;20419;-90
2024/01/26 02:02:48;;;;;;;8.27;7.72;;;;;;;-145.48;100.00;64539.38;6264574;28;20084;-89
2024/01/26 02:05:50;;;;;;;7.80;7.40;;;;;;;-145.48;100.00;64539.38;6261082;28;20055;-91
2024/01/26 02:08:52;;;;;;;7.95;7.43;;;;;;;-145.48;100.00;64539.38;6256095;28;20482;-92
2024/01/26 02:11:55;;;;;;;7.28;6.68;;;;;;;-145.48;100.00;64539.38;6258252;28;20048;-92
2024/01/26 02:14:57;;;;;;;7.90;7.50;;;;;;;-145.48;100.00;64539.38;6257119;28;20056;-91
2024/01/26 02:17:59;;;;;;;6.47;6.15;;;;;;;-145.48;100.00;64539.38;6258739;28;20041;-92
2024/01/26 02:21:01;;;;;;;6.90;6.45;;;;;;;-145.48;100.00;64539.38;6260779;28;20040;-91
2024/01/26 02:24:03;;;;;;;8.00;7.45;;;;;;;-145.48;100.00;64539.38;6251112;28;20094;-92
2024/01/26 02:27:05;;;;;;;6.35;6.15;;;;;;;-145.48;100.00;64539.38;6258134;28;20065;-92
2024/01/26 02:30:08;;;;;;;5.63;5.43;;;;;;;-145.48;100.00;64539.38;6253910;28;20353;-92
2024/01/26 02:33:10;;;;;;;7.15;6.85;;;;;;;-145.48;100.00;64539.38;6262315;28;20036;-92
2024/01/26 02:36:12;;;;;;;6.53;6.32;;;;;;;-145.48;100.00;64539.38;6258858;28;20112;-92
2024/01/26 02:39:17;;;;;;;6.32;6.03;;;;;;;-145.48;100.00;64539.38;6258212;28;20577;-93
2024/01/26 02:42:19;;;;;;;6.22;6.03;;;;;;;-145.48;100.00;64539.38;6260495;28;20041;-93
2024/01/26 02:45:24;;;;;;;6.45;6.15;;;;;;;-145.48;100.00;64539.38;6262997;28;20363;-92
2024/01/26 02:48:26;;;;;;;6.00;5.75;;;;;;;-145.48;100.00;64539.38;6256943;28;20037;-91
2024/01/26 02:51:28;;;;;;;8.20;7.68;;;;;;;-145.48;100.00;64539.38;6258751;28;20560;-93
2024/01/26 02:54:30;;;;;;;8.95;8.45;;;;;;;-145.48;100.00;64539.38;6260304;28;20057;-93
2024/01/26 02:57:31;;;;;;;6.68;6.47;;;;;;;-145.48;100.00;64539.38;6262280;28;20121;-93
2024/01/26 03:00:35;;;;;;;6.93;6.55;;;;;;;-145.48;100.00;64539.38;6245873;28;20045;-93
2024/01/26 03:03:37;;;;;;;7.35;7.03;;;;;;;-145.48;100.00;64539.38;6256083;28;20487;-93
2024/01/26 03:06:40;;;;;;;8.38;7.97;;;;;;;-145.48;100.00;64539.38;6255269;28;20040;-93
2024/01/26 03:09:41;;;;;;;7.93;6.85;;;;;;;-145.48;100.00;64539.38;6266358;28;20049;-93
2024/01/26 03:12:43;;;;;;;6.57;6.28;;;;;;;-145.48;100.00;64539.38;6260687;28;20116;-93
2024/01/26 03:15:51;;;;;;;8.38;7.40;;;;;;;-145.48;100.00;64539.38;6249271;28;20445;-93
2024/01/26 03:18:54;;;;;;;7.18;6.85;;;;;;;-145.48;100.00;64539.38;6252853;28;20426;-93
2024/01/26 03:21:57;;;;;;;6.90;6.60;;;;;;;-145.48;100.00;64539.38;6258699;28;20399;-93
2024/01/26 03:24:59;;;;;;;7.10;6.65;;;;;;;-145.48;100.00;64539.38;6260029;28;20045;-93
2024/01/26 03:28:01;;;;;;;6.45;6.15;;;;;;;-145.48;100.00;64539.38;6248136;28;20254;-93
2024/01/26 03:31:04;;;;;;;8.98;8.25;;;;;;;-145.48;100.00;64539.38;6258209;28;20502;-93
2024/01/26 03:34:07;;;;;;;7.35;7.03;;;;;;;-145.48;100.00;64539.38;6261398;28;20029;-93
2024/01/26 03:37:10;;;;;;;7.10;6.80;;;;;;;-145.48;100.00;64539.38;6262018;28;20037;-93
2024/01/26 03:40:12;;;;;;;7.93;7.50;;;;;;;-145.48;100.00;64539.38;6260997;28;20497;-93
2024/01/26 03:43:13;;;;;;;5.88;5.65;;;;;;;-145.48;100.00;64539.38;6263082;28;20040;-93
2024/01/26 03:46:15;;;;;;;6.55;6.32;;;;;;;-145.48;100.00;64539.38;6259875;28;20471;-94
2024/01/26 03:49:17;;;;;;;7.53;7.22;;;;;;;-145.48;100.00;64539.38;6256202;28;20130;-93
2024/01/26 03:52:19;;;;;;;6.93;6.63;;;;;;;-145.48;100.00;64539.38;6248247;28;20045;-93
2024/01/26 03:55:21;;;;;;;6.38;6.18;;;;;;;-145.48;100.00;64539.38;6258878;28;20183;-93
2024/01/26 03:58:23;;;;;;;8.38;7.90;;;;;;;-145.48;100.00;64539.38;6254726;28;20042;-93
2024/01/26 04:01:25;;;;;;;7.07;6.88;;;;;;;-145.48;100.00;64539.38;6249066;28;20084;-94
2024/01/26 04:04:27;;;;;;;6.53;6.20;;;;;;;-145.48;100.00;64539.38;6257298;28;20501;-93
2024/01/26 04:07:29;;;;;;;6.88;6.47;;;;;;;-145.48;100.00;64539.38;6258912;28;20041;-93
2024/01/26 04:10:31;;;;;;;6.40;6.18;;;;;;;-145.48;100.00;64539.38;6258281;28;20181;-93
2024/01/26 04:13:32;;;;;;;6.05;5.85;;;;;;;-145.48;100.00;64539.38;6253430;28;20207;-93
2024/01/26 04:16:34;;;;;;;6.07;5.88;;;;;;;-145.48;100.00;64539.38;6261307;28;20122;-93
2024/01/26 04:19:36;;;;;;;6.00;5.78;;;;;;;-145.48;100.00;64539.38;6252090;28;20172;-92
2024/01/26 04:22:38;;;;;;;5.47;5.28;;;;;;;-145.48;100.00;64539.38;6253420;28;20130;-93
2024/01/26 04:25:40;;;;;;;5.85;5.65;;;;;;;-145.48;100.00;64539.38;6251112;28;20135;-93
2024/01/26 04:28:42;;;;;;;6.90;6.60;;;;;;;-145.48;100.00;64539.38;6261210;28;20048;-92
2024/01/26 04:31:44;;;;;;;6.10;5.85;;;;;;;-145.48;100.00;64539.38;6264112;28;20147;-93
2024/01/26 04:34:46;;;;;;;7.13;6.82;;;;;;;-145.48;100.00;64539.38;6259108;28;20111;-93
2024/01/26 04:37:48;;;;;;;5.97;5.78;;;;;;;-145.48;100.00;64539.38;6263243;28;20048;-93
2024/01/26 04:40:51;;;;;;;6.03;5.82;;;;;;;-145.48;100.00;64539.38;6248671;28;20135;-93
2024/01/26 04:43:53;;;;;;;6.50;6.30;;;;;;;-145.48;100.00;64539.38;6259762;28;20052;-93
2024/01/26 04:46:57;;;;;;;6.50;6.30;;;;;;;-145.48;100.00;64539.38;6253192;28;20121;-93
2024/01/26 04:49:59;;;;;;;7.28;6.80;;;;;;;-145.48;100.00;64539.38;6254140;28;20405;-93
2024/01/26 04:53:01;;;;;;;6.25;5.95;;;;;;;-145.48;100.00;64539.38;6258231;28;20480;-93
2024/01/26 04:56:03;;;;;;;5.95;5.75;;;;;;;-145.48;100.00;64539.38;6251088;28;20048;-93
2024/01/26 04:59:05;;;;;;;6.50;6.30;;;;;;;-145.48;100.00;64539.38;6259364;28;20491;-93
2024/01/26 05:02:07;;;;;;;6.05;5.85;;;;;;;-145.48;100.00;64539.38;6254939;28;20491;-93
2024/01/26 05:05:11;;;;;;;5.50;5.30;;;;;;;-145.48;100.00;64539.38;6259642;28;20124;-93
2024/01/26 05:08:14;;;;;;;6.70;6.50;;;;;;;-145.48;100.00;64539.38;6259068;28;20033;-93
2024/01/26 05:11:16;;;;;;;6.35;6.15;;;;;;;-145.48;100.00;64539.38;6257813;28;20036;-93
2024/01/26 05:14:18;;;;;;;6.45;6.25;;;;;;;-145.48;100.00;64539.38;6259777;28;20049;-93
2024/01/26 05:17:20;;;;;;;7.15;6.78;;;;;;;-145.48;100.00;64539.38;6254693;28;20258;-93
2024/01/26 05:20:22;;;;;;;7.15;6.85;;;;;;;-145.48;100.00;64539.38;6259837;28;20041;-94
2024/01/26 05:23:24;;;;;;;6.35;6.13;;;;;;;-145.48;100.00;64539.38;6259897;28;20514;-93
2024/01/26 05:26:26;;;;;;;6.15;5.95;;;;;;;-145.48;100.00;64539.38;6251327;28;20522;-93
2024/01/26 05:29:28;;;;;;;5.70;5.50;;;;;;;-145.48;100.00;64539.38;6254152;28;20124;-93
2024/01/26 05:32:30;;;;;;;6.47;6.28;;;;;;;-145.48;100.00;64539.38;6250097;28;20060;-93
2024/01/26 05:35:32;;;;;;;5.80;5.60;;;;;;;-145.48;100.00;64539.38;6259885;28;20096;-94
2024/01/26 05:38:34;;;;;;;7.00;6.70;;;;;;;-145.48;100.00;64539.38;6254768;28;20406;-93
2024/01/26 05:41:36;;;;;;;7.03;6.75;;;;;;;-145.48;100.00;64539.38;6234798;28;20155;-93
2024/01/26 05:44:38;;;;;;;6.10;5.90;;;;;;;-145.48;100.00;64539.38;6247173;28;20510;-92
2024/01/26 05:47:40;;;;;;;6.05;5.85;;;;;;;-145.48;100.00;64539.38;6247605;28;20056;-94
2024/01/26 05:50:42;;;;;;;5.68;5.47;;;;;;;-145.48;100.00;64539.38;6251765;28;20363;-93
2024/01/26 05:53:44;;;;;;;6.25;6.05;;;;;;;-145.48;100.00;64539.38;6261226;28;20044;-93
2024/01/26 05:56:46;;;;;;;6.55;6.25;;;;;;;-145.48;100.00;64539.38;6252041;28;20038;-93
2024/01/26 05:59:48;;;;;;;7.03;6.72;;;;;;;-145.48;100.00;64539.38;6255994;28;20488;-94
2024/01/26 06:02:50;;;;;;;7.47;7.18;;;;;;;-145.48;100.00;64539.38;6259570;28;20456;-93
2024/01/26 06:05:52;;;;;;;7.38;7.07;;;;;;;-145.48;100.00;64539.38;6255297;28;20040;-94
2024/01/26 06:08:54;;;;;;;7.88;7.50;;;;;;;-145.48;100.00;64539.38;6256348;28;20049;-94
2024/01/26 06:11:56;;;;;;;7.95;7.50;;;;;;;-145.48;100.00;64539.38;6259992;28;20061;-93
2024/01/26 06:14:58;;;;;;;6.95;6.65;;;;;;;-145.48;100.00;64539.38;6260376;28;20139;-93
2024/01/26 06:18:00;;;;;;;7.20;6.90;;;;;;;-145.48;100.00;64539.38;6257118;28;20044;-93
2024/01/26 06:21:03;;;;;;;9.63;7.50;;;;;;;-145.48;100.00;64539.38;6255752;28;20036;-93
2024/01/26 06:24:05;;;;;;;6.47;6.18;;;;;;;-145.48;100.00;64539.38;6257237;28;20037;-93
2024/01/26 06:27:07;;;;;;;6.57;6.32;;;;;;;-145.48;100.00;64539.38;6258464;28;20509;-93
2024/01/26 06:30:16;;;;;;;7.05;6.75;;;;;;;-145.48;100.00;64539.38;6254180;28;20061;-94
2024/01/26 06:33:18;;;;;;;7.32;7.03;;;;;;;-145.48;100.00;64539.38;6257922;28;20041;-93
2024/01/26 06:36:21;;;;;;;7.60;7.30;;;;;;;-145.48;100.00;64539.38;6264032;28;20049;-93
2024/01/26 06:39:24;;;;;;;6.53;6.22;;;;;;;-145.48;100.00;64539.38;6251164;28;20072;-93
2024/01/26 06:42:26;;;;;;;7.30;7.00;;;;;;;-145.48;100.00;64539.38;6259463;28;20443;-93
2024/01/26 06:45:28;;;;;;;7.70;7.30;;;;;;;-145.48;100.00;64539.38;6265769;28;20708;-93
2024/01/26 06:48:30;;;;;;;6.35;6.15;;;;;;;-145.48;100.00;64539.38;6256103;28;20034;-94
2024/01/26 06:51:32;;;;;;;7.95;7.55;;;;;;;-145.48;100.00;64539.38;6252221;28;20076;-93
2024/01/26 06:54:34;;;;;;;6.75;6.50;;;;;;;-145.48;100.00;64539.38;6260085;28;20112;-93
2024/01/26 06:57:36;;;;;;;6.88;6.57;;;;;;;-145.48;100.00;64539.38;6254876;28;20049;-93
2024/01/26 07:00:38;;;;;;;8.02;7.72;;;;;;;-145.48;100.00;64539.38;6257642;28;20041;-94
2024/01/26 07:03:45;;;;;;;7.22;6.78;;;;;;;-145.48;100.00;64539.38;6253442;28;20037;-93
2024/01/26 07:06:47;;;;;;;7.07;6.88;;;;;;;-145.48;100.00;64539.38;6256924;28;20122;-94
2024/01/26 07:09:49;;;;;;;7.50;7.20;;;;;;;-145.48;100.00;64539.38;6251140;28;20063;-94
2024/01/26 07:12:51;;;;;;;7.50;7.00;;;;;;;-145.48;100.00;64539.38;6265891;28;20037;-93
2024/01/26 07:15:53;;;;;;;8.35;7.93;;;;;;;-145.48;100.00;64539.38;6256958;28;20045;-94
2024/01/26 07:18:55;;;;;;;5.95;5.75;;;;;;;-145.48;100.00;64539.38;6257475;28;20041;-94
2024/01/26 07:21:57;;;;;;;7.18;6.82;;;;;;;-145.48;100.00;64539.38;6262316;28;20180;-94
2024/01/26 07:24:59;;;;;;;8.13;7.72;;;;;;;-145.48;100.00;64539.38;6255725;28;20037;-93
2024/01/26 07:28:05;;;;;;;6.72;6.45;;;;;;;-145.48;100.00;64539.38;6260578;28;20045;-93
2024/01/26 07:31:07;;;;;;;7.15;6.65;;;;;;;-145.48;100.00;64539.38;6263744;28;20044;-94
2024/01/26 07:34:09;;;;;;;7.13;6.35;;;;;;;-145.48;100.00;64539.38;6262313;28;20044;-93
2024/01/26 07:37:11;;;;;;;7.35;6.95;;;;;;;-145.48;100.00;64539.38;6259099;28;20048;-94
2024/01/26 07:40:16;;;;;;;7.43;7.13;;;;;;;-145.48;100.00;64539.38;6264196;28;20037;-94
2024/01/26 07:43:18;;;;;;;7.15;6.85;;;;;;;-145.48;100.00;64539.38;6257118;28;20037;-94
2024/01/26 07:46:20;;;;;;;7.43;7.07;;;;;;;-145.48;100.00;64539.38;6258506;28;20052;-93
2024/01/26 07:49:22;;;;;;;7.53;7.22;;;;;;;-145.48;100.00;64539.38;6229751;28;20155;-93
2024/01/26 07:52:24;;;;;;;7.35;7.00;;;;;;;-145.48;100.00;64539.38;6261806;28;20147;-93
2024/01/26 07:55:26;;;;;;;6.22;5.85;;;;;;;-145.48;100.00;64539.38;6257196;28;20127;-93
2024/01/26 07:58:28;;;;;;;6.30;6.00;;;;;;;-145.48;100.00;64539.38;6256650;28;20037;-94
2024/01/26 08:01:31;;;;;;;6.30;6.00;;;;;;;-145.48;100.00;64539.38;6260646;28;20040;-94
2024/01/26 08:04:34;;;;;;;5.70;5.50;;;;;;;-145.48;100.00;64539.38;6257498;28;20234;-93
2024/01/26 08:07:37;;;;;;;7.85;7.45;;;;;;;-145.48;100.00;64539.38;6260117;28;20037;-93
2024/01/26 08:10:38;;;;;;;5.85;5.65;;;;;;;-145.48;100.00;64539.38;6256560;28;20541;-94
2024/01/26 08:13:41;;;;;;;6.93;6.55;;;;;;;-145.48;100.00;64539.38;6249577;28;20199;-93
2024/01/26 08:16:43;;;;;;;7.25;6.95;;;;;;;-145.48;100.00;64539.38;6262902;28;20045;-93
2024/01/26 08:19:45;;;;;;;6.78;6.47;;;;;;;-145.48;100.00;64539.38;6248667;28;20072;-93
2024/01/26 08:22:47;;;;;;;6.75;6.45;;;;;;;-145.48;100.00;64539.38;6253511;28;20048;-93
2024/01/26 08:25:49;;;;;;;7.22;6.93;;;;;;;-145.48;100.00;64539.38;6250509;28;20038;-93
2024/01/26 08:28:51;;;;;;;7.88;7.47;;;;;;;-145.48;100.00;64539.38;6252044;28;20490;-93
2024/01/26 08:31:53;;;;;;;6.43;6.22;;;;;;;-145.48;100.00;64539.38;6251847;28;20497;-93
2024/01/26 08:34:56;;;;;;;6.18;5.97;;;;;;;-145.48;100.00;64539.38;6258622;28;20075;-93
2024/01/26 08:37:58;;;;;;;7.70;7.30;;;;;;;-145.48;100.00;64539.38;6252385;28;20056;-94
2024/01/26 08:41:00;;;;;;;6.70;6.50;;;;;;;-145.48;100.00;64539.38;6254576;28;20069;-93
2024/01/26 08:44:03;;;;;;;6.03;5.78;;;;;;;-145.48;100.00;64539.38;6258263;28;20059;-93
2024/01/26 08:47:06;;;;;;;6.25;6.05;;;;;;;-145.48;100.00;64539.38;6259825;28;20114;-92
2024/01/26 08:50:08;;;;;;;7.15;6.85;;;;;;;-145.48;100.00;64539.38;6257738;28;20092;-92
2024/01/26 08:53:10;;;;;;;7.40;7.10;;;;;;;-145.48;100.00;64539.38;6252057;28;20399;-92
2024/01/26 08:56:14;;;;;;;8.02;7.47;;;;;;;-145.48;100.00;64539.38;6252751;28;20030;-93
2024/01/26 08:59:17;;;;;;;6.97;6.68;;;;;;;-145.48;100.00;64539.38;6264040;28;20048;-92
2024/01/26 09:02:19;;;;;;;8.20;7.60;;;;;;;-145.48;100.00;64539.38;6260937;28;20041;-92
2024/01/26 09:05:20;;;;;;;7.57;7.18;;;;;;;-145.48;100.00;64539.38;6258090;28;20047;-93
2024/01/26 09:08:22;;;;;;;6.78;6.47;;;;;;;-145.48;100.00;64539.38;6253249;28;20121;-92
2024/01/26 09:11:24;;;;;;;7.07;6.78;;;;;;;-145.48;100.00;64539.38;6257206;28;20048;-89
2024/01/26 09:14:27;;;;;;;7.13;6.82;;;;;;;-145.48;100.00;64539.38;6250699;28;20069;-89
2024/01/26 09:17:29;;;;;;;6.82;6.53;;;;;;;-145.48;100.00;64539.38;6244700;28;20045;-88
2024/01/26 09:20:33;;;;;;;6.18;5.97;;;;;;;-145.48;100.00;64539.38;6245429;28;20040;-89
2024/01/26 09:23:35;;;;;;;6.57;6.38;;;;;;;-145.48;100.00;64539.38;6246304;28;20049;-89
2024/01/26 09:26:39;;;;;;;7.57;7.28;;;;;;;-145.48;100.00;64539.38;6249330;28;20136;-88
2024/01/26 09:29:41;;;;;;;6.20;6.00;;;;;;;-145.48;100.00;64539.38;6248886;28;20052;-89
2024/01/26 09:32:43;;;;;;;7.15;6.95;;;;;;;-145.48;100.00;64539.38;6252037;28;20048;-89
2024/01/26 09:35:47;;;;;;;6.95;6.75;;;;;;;-145.48;100.00;64539.38;6258454;28;20049;-90
2024/01/26 09:38:50;;;;;;;7.45;7.18;;;;;;;-145.48;100.00;64539.38;6241935;28;20049;-89
2024/01/26 09:41:52;;;;;;;6.03;5.82;;;;;;;-145.48;100.00;64539.38;6272718;28;20130;-96
2024/01/26 09:44:55;;;;;;;6.80;6.57;;;;;;;-145.48;100.00;64539.38;6251916;28;20041;-93
2024/01/26 09:48:00;;;;;;;7.30;6.82;;;;;;;-145.48;100.00;64539.38;6253211;28;20040;-93
2024/01/26 09:51:03;;;;;;;6.90;6.70;;;;;;;-145.48;100.00;64539.38;6258937;28;20060;-93
2024/01/26 09:54:12;;;;;;;6.25;5.95;;;;;;;-145.48;100.00;64539.38;6255138;28;20053;-93
2024/01/26 09:57:15;;;;;;;6.03;5.82;;;;;;;-145.48;100.00;64539.38;6256968;28;20128;-90
2024/01/26 10:00:18;;;;;;;6.50;6.30;;;;;;;-145.48;100.00;64539.38;6261107;28;20130;-88
2024/01/26 10:03:23;;;;;;;6.70;6.50;;;;;;;-145.48;100.00;64539.38;6251404;28;20037;-89
2024/01/26 10:06:26;;;;;;;8.02;7.50;;;;;;;-145.48;100.00;64539.38;6281010;28;20036;-87
2024/01/26 10:09:29;;;;;;;7.82;7.43;;;;;;;-145.48;100.00;64539.38;6272752;28;20045;-88
2024/01/26 10:12:31;;;;;;;6.35;6.05;;;;;;;-145.48;100.00;64539.38;6256788;28;20393;-89
2024/01/26 10:15:33;;;;;;;6.43;6.22;;;;;;;-145.48;100.00;64539.38;6262601;28;20506;-89
2024/01/26 10:18:47;;;;;;;7.13;6.88;;;;;;;-145.48;100.00;64539.38;6254971;28;20128;-90
2024/01/26 10:21:51;;;;;;;6.68;6.47;;;;;;;-145.48;100.00;64539.38;6256579;28;20128;-90
2024/01/26 10:24:54;;;;;;;8.43;8.13;;;;;;;-145.48;100.00;64539.38;6262140;28;20036;-89
2024/01/26 10:27:55;;;;;;;6.65;6.30;;;;;;;-145.48;100.00;64539.38;6263249;28;20072;-89
2024/01/26 10:30:58;;;;;;;6.45;6.25;;;;;;;-145.48;100.00;64539.38;6262774;28;20044;-89
2024/01/26 10:34:01;;;;;;;6.30;6.10;;;;;;;-145.48;100.00;64539.38;6262446;28;20041;-88
2024/01/26 10:37:07;;;;;;;5.93;5.72;;;;;;;-145.48;100.00;64539.38;6271697;28;20048;-88
2024/01/26 10:40:14;;;;;;;5.43;5.28;;;;;;;-145.48;100.00;64539.38;6262474;28;20049;-87
2024/01/26 10:43:17;;;;;;;6.05;5.85;;;;;;;-145.48;100.00;64539.38;6257790;28;20112;-88
2024/01/26 10:46:19;;;;;;;6.97;6.78;;;;;;;-145.48;100.00;64539.38;6263219;28;20566;-87
2024/01/26 10:49:22;;;;;;;5.95;5.75;;;;;;;-145.48;100.00;64539.38;6265251;28;20040;-87
2024/01/26 10:52:25;;;;;;;6.15;5.95;;;;;;;-145.48;100.00;64539.38;6263901;28;20048;-87
2024/01/26 10:55:31;;;;;;;6.15;5.95;;;;;;;-145.48;100.00;64539.38;6257058;28;20047;-86
2024/01/26 10:58:33;;;;;;;6.20;6.00;;;;;;;-145.48;100.00;64539.38;6256115;28;20044;-86
2024/01/26 11:01:39;;;;;;;5.90;5.70;;;;;;;-145.48;100.00;64539.38;6262266;28;20389;-85
2024/01/26 11:04:43;;;;;;;6.10;5.90;;;;;;;-145.48;100.00;64539.38;6262692;28;20499;-84
2024/01/26 11:07:47;;;;;;;6.25;6.05;;;;;;;-145.48;100.00;64539.38;6256600;28;20045;-85
2024/01/26 11:10:51;;;;;;;5.57;5.38;;;;;;;-145.48;100.00;64539.38;6256852;28;20037;-84
2024/01/26 11:13:54;;;;;;;6.82;6.53;;;;;;;-145.48;100.00;64539.38;6262109;28;20578;-84
2024/01/26 11:17:08;;;;;;;6.50;6.20;;;;;;;-145.48;100.00;64539.38;6257356;28;20079;-85
2024/01/26 11:20:15;;;;;;;6.40;6.20;;;;;;;-145.48;100.00;64539.38;6266577;28;20037;-85
2024/01/26 11:23:17;;;;;;;6.90;6.70;;;;;;;-145.48;100.00;64539.38;6263436;28;20077;-85
2024/01/26 11:26:19;;;;;;;6.72;6.53;;;;;;;-145.48;100.00;64539.38;6263237;28;20045;-85
2024/01/26 11:29:21;;;;;;;6.55;6.35;;;;;;;-145.48;100.00;64539.38;6255726;28;20033;-85
2024/01/26 11:32:23;;;;;;;10.20;9.80;;;;;;;-145.48;100.00;64539.38;6259028;28;20145;-85
2024/01/26 11:35:25;;;;;;;7.13;6.82;;;;;;;-145.48;100.00;64539.38;6257957;28;20533;-85
2024/01/26 11:38:28;;;;;;;6.65;6.45;;;;;;;-145.48;100.00;64539.38;6258547;28;20052;-85
2024/01/26 11:41:31;;;;;;;7.32;6.85;;;;;;;-145.48;100.00;64539.38;6263249;28;20037;-85
2024/01/26 11:44:40;;;;;;;5.93;5.72;;;;;;;-145.48;100.00;64539.38;6259850;28;20048;-84
2024/01/26 11:47:42;;;;;;;7.60;7.30;;;;;;;-145.48;100.00;64539.38;6247494;28;20061;-85
2024/01/26 11:50:46;;;;;;;6.75;6.55;;;;;;;-145.48;100.00;64539.38;6261330;28;20525;-84
2024/01/26 11:53:48;;;;;;;6.97;6.78;;;;;;;-145.48;100.00;64539.38;6263323;28;20052;-84
2024/01/26 11:56:51;;;;;;;6.63;6.43;;;;;;;-145.48;100.00;64539.38;6258810;28;20041;-85
2024/01/26 11:59:53;;;;;;;6.97;6.78;;;;;;;-145.48;100.00;64539.38;6262940;28;20300;-84
2024/01/26 12:02:56;;;;;;;7.90;7.60;;;;;;;-145.48;100.00;64539.38;6255980;28;20041;-86
2024/01/26 12:05:59;;;;;;;6.95;6.75;;;;;;;-145.48;100.00;64539.38;6246587;28;20044;-91
2024/01/26 12:09:01;;;;;;;7.35;7.15;;;;;;;-145.48;100.00;64539.38;6257231;28;20083;-85
2024/01/26 12:12:08;;;;;;;9.75;9.45;;;;;;;-145.48;100.00;64539.38;6257474;28;20038;-86
2024/01/26 12:15:10;;;;;;;6.88;6.68;;;;;;;-145.48;100.00;64539.38;6256628;28;20551;-88
2024/01/26 12:18:12;;;;;;;5.80;5.60;;;;;;;-145.48;100.00;64539.38;6236966;28;20056;-88
2024/01/26 12:21:15;;;;;;;6.72;6.53;;;;;;;-145.48;100.00;64539.38;6247912;28;20416;-88
2024/01/26 12:24:17;;;;;;;5.72;5.53;;;;;;;-145.48;100.00;64539.38;6255550;28;20176;-86
2024/01/26 12:27:22;;;;;;;6.57;6.38;;;;;;;-145.48;100.00;64539.38;6248152;28;20072;-85
2024/01/26 12:30:25;;;;;;;5.97;5.78;;;;;;;-145.48;100.00;64539.38;6255212;28;20560;-85
2024/01/26 12:33:27;;;;;;;6.18;5.97;;;;;;;-145.48;100.00;64539.38;6248267;28;20026;-86
2024/01/26 12:36:31;;;;;;;6.55;6.35;;;;;;;-145.48;100.00;64539.38;6251247;28;20106;-86
2024/01/26 12:39:34;;;;;;;7.68;7.47;;;;;;;-145.48;100.00;64539.38;6258248;28;20526;-87
2024/01/26 12:42:36;;;;;;;6.95;6.75;;;;;;;-145.48;100.00;64539.38;6246163;28;20119;-86
2024/01/26 12:45:38;;;;;;;6.63;6.43;;;;;;;-145.48;100.00;64539.38;6245978;28;20076;-84
2024/01/26 12:48:40;;;;;;;7.20;7.00;;;;;;;-145.48;100.00;64539.38;6248414;28;20079;-84
2024/01/26 12:51:42;;;;;;;7.07;6.85;;;;;;;-145.48;100.00;64539.38;6248505;28;20073;-84
2024/01/26 12:54:45;;;;;;;6.63;6.43;;;;;;;-145.48;100.00;64539.38;6253477;28;20056;-84
2024/01/26 12:57:47;;;;;;;5.75;5.55;;;;;;;-145.48;100.00;64539.38;6260469;28;20530;-84
2024/01/26 13:00:49;;;;;;;6.40;6.20;;;;;;;-145.48;100.00;64539.38;6260685;28;20044;-84
2024/01/26 13:03:53;;;;;;;7.28;6.97;;;;;;;-145.48;100.00;64539.38;6249039;28;20491;-85
2024/01/26 13:06:56;;;;;;;7.55;7.35;;;;;;;-145.48;100.00;64539.38;6251863;28;20495;-85
2024/01/26 13:09:58;;;;;;;6.68;6.47;;;;;;;-145.48;100.00;64539.38;6262970;28;20130;-86
2024/01/26 13:13:01;;;;;;;7.20;6.90;;;;;;;-145.48;100.00;64539.38;6249372;28;20122;-85
2024/01/26 13:16:03;;;;;;;6.25;6.05;;;;;;;-145.48;100.00;64539.38;6250207;28;20044;-87
2024/01/26 13:19:05;;;;;;;7.40;7.10;;;;;;;-145.48;100.00;64539.38;6246514;28;20047;-88
2024/01/26 13:22:07;;;;;;;6.88;6.50;;;;;;;-145.48;100.00;64539.38;6255073;28;20041;-89
2024/01/26 13:25:10;;;;;;;7.28;6.97;;;;;;;-145.48;100.00;64539.38;6249132;28;20043;-90
2024/01/26 13:28:13;;;;;;;6.35;6.15;;;;;;;-145.48;100.00;64539.38;6246416;28;20052;-89
2024/01/26 13:31:14;;;;;;;6.07;5.88;;;;;;;-145.48;100.00;64539.38;6233687;28;20053;-90
2024/01/26 13:34:18;;;;;;;6.93;6.63;;;;;;;-145.48;100.00;64539.38;6244667;28;20046;-93
2024/01/26 13:37:20;;;;;;;5.53;5.32;;;;;;;-145.48;100.00;64539.38;6265004;28;20561;-92
2024/01/26 13:40:21;;;;;;;6.47;6.28;;;;;;;-145.48;100.00;64539.38;6258200;28;20041;-92
2024/01/26 13:43:55;;;;;;;7.75;7.45;;;;;;;-145.48;100.00;64539.38;6248447;28;20785;-91
2024/01/26 13:47:20;;;;;;;6.60;6.40;;;;;;;-145.48;100.00;64539.38;6247893;28;20045;-92
2024/01/26 13:50:22;;;;;;;5.70;5.50;;;;;;;-145.48;100.00;64539.38;6253354;28;20037;-91